Rechercher aéroport 
image banner adimage banner adimage banner ad
image banner ad

5CA2 - Ord Mountain

Situé à Barstow, United States

ICAO - 5CA2, IATA -

Données fournies par Airmate  

Information générale

Coordonnées: N34°40'32" W116°48'55"
Élévation : 6120 feet MSL.
Variation magnétique : 14° East
Voir autres Aéroports à California

Données opérationnelles

Special qualification required
Heure actuelle UTC:
Heure actuelle locale:
Météo à : KDAG - Barstow-Daggett ( 20 km )
METAR: KDAG 300050Z AUTO 00000KT 10SM CLR 39/09 A2980 RMK AO2 SLP058 T03940089
TAF: KDAG 292334Z 3000/3024 36006KT P6SM SCT120 FM300300 25014KT P6SM SCT120 BKN250 FM301200 VRB06KT P6SM SCT120 BKN200 FM301700 12012G22KT P6SM VCTS SCT120CB BKN200
Voir NOTAMs / SUP AIP / TFR affectant cet aéroport [VIEW]
Fréquences de communication: [VIEW]

Pistes:

Coordonnées de l'aéroport

Adresse: Barstow United States

Vue satellite de 5CA2